Terminal Aerodrome Forecast
Issued by NWS

Home | Current Version | Previous Version | Text Only | Print | Product List | Glossary Off
Versions: 1 2 3 4 5 6 7 8 9 10 11 12 13 14 15 16 17 18 19

010
FTUS43 KABR 190531
TAFMBG
TAF
KMBG 190531Z 1906/2006 16009KT P6SM BKN250 WS020/20035KT
     FM190700 15008KT P6SM BKN250=

USA.gov is the U.S. government's official web portal to all federal, state and local government web resources and services.